Caseros, Argentina
Current Conditions -  °F | °C
As of 11:00 PM on Thursday 20 Nov 2014 (Local Time) from SABE Reporting Station
Broken Clouds Broken Clouds  
Wind Chill: 70°   Ceiling: 10000
Heat Index: 70°   Visibility: 6mi
Dew Point: 61°   Wind: 17mph
Humidity: 73%   Direction: 140°SE
Pressure: 30"   Gusts: NA
Location:  34.6°S, 58.55°W
Report Text: SABE 210200Z 14015KT 9999 SCT020 BKN10021/16 Q1016
Loading
Personal Weather Stations






























Interactive Weather Map New forecast layout! Learn more

10-Day Weather Forecast

Advertisements
Track Severe Weather on mobile